createdAt,value
2023-02-13T00:00:00.717Z,97348.44
2023-02-13T00:02:46.601Z,97349.59
2023-02-13T00:05:32.384Z,97335.50
2023-02-13T00:08:18.325Z,97353.09
2023-02-13T00:11:04.266Z,97338.41
2023-02-13T00:13:50.252Z,97369.16
2023-02-13T00:16:36.344Z,97359.66
2023-02-13T00:19:22.495Z,97360.31
2023-02-13T00:22:11.844Z,97355.00
2023-02-13T00:24:57.808Z,97351.59
2023-02-13T00:27:43.650Z,97371.63
2023-02-13T00:30:29.607Z,97374.94
2023-02-13T00:33:15.486Z,97371.53
2023-02-13T00:36:13.130Z,97377.16
2023-02-13T00:38:59.180Z,97376.19
2023-02-13T00:41:45.072Z,97384.47
2023-02-13T00:44:31.477Z,97391.25
2023-02-13T00:47:17.613Z,97394.22
2023-02-13T00:50:03.572Z,97391.03
2023-02-13T00:52:49.809Z,97398.66
2023-02-13T00:55:35.806Z,97394.41
2023-02-13T00:58:23.507Z,97400.34
2023-02-13T01:01:10.187Z,97385.72
2023-02-13T01:03:56.322Z,97401.41
2023-02-13T01:06:42.193Z,97399.94
2023-02-13T01:09:28.008Z,97356.88
2023-02-13T01:12:13.839Z,97402.44
2023-02-13T01:15:01.760Z,97399.91
2023-02-13T01:17:47.737Z,97404.13
2023-02-13T01:20:33.940Z,97405.06
2023-02-13T01:23:19.910Z,97398.94
2023-02-13T01:26:08.402Z,97402.25
2023-02-13T01:28:55.145Z,97407.00
2023-02-13T01:31:41.316Z,97402.84
2023-02-13T01:34:27.446Z,97410.78
2023-02-13T01:37:13.706Z,97409.19
2023-02-13T01:39:59.843Z,97423.25
2023-02-13T01:42:45.693Z,97423.06
2023-02-13T01:45:31.736Z,97423.25
2023-02-13T01:48:25.981Z,97431.31
2023-02-13T01:51:17.751Z,97426.97
2023-02-13T01:54:12.566Z,97421.25
2023-02-13T01:57:03.683Z,97423.97
2023-02-13T01:59:55.933Z,97378.13
2023-02-13T02:02:46.154Z,97414.09
2023-02-13T02:05:34.625Z,97439.97
2023-02-13T02:08:21.293Z,97420.78
2023-02-13T02:11:18.097Z,97429.56
2023-02-13T02:14:04.593Z,97436.56
2023-02-13T02:16:53.904Z,97419.81
2023-02-13T02:19:46.650Z,97445.03
2023-02-13T02:23:23.553Z,97445.81
2023-02-13T02:26:21.511Z,97448.66
2023-02-13T02:29:36.525Z,97463.88
2023-02-13T02:32:37.654Z,97442.25
2023-02-13T02:35:34.220Z,97468.25
2023-02-13T02:38:54.188Z,97462.56
2023-02-13T02:42:05.533Z,97465.50
2023-02-13T02:44:59.457Z,97452.78
2023-02-13T02:48:36.180Z,97455.44
2023-02-13T02:51:26.272Z,97457.50
2023-02-13T02:54:38.934Z,97456.84
2023-02-13T02:57:49.133Z,97459.03
2023-02-13T03:00:57.892Z,97451.38
2023-02-13T03:04:03.115Z,97442.41
2023-02-13T03:06:51.660Z,97438.16
2023-02-13T03:09:59.903Z,97454.38
2023-02-13T03:13:13.865Z,97465.44
2023-02-13T03:16:19.080Z,97459.66
2023-02-13T03:19:23.592Z,97457.56
2023-02-13T03:22:22.989Z,97451.34
2023-02-13T03:25:15.057Z,97480.03
2023-02-13T03:28:48.874Z,97470.75
2023-02-13T03:32:01.570Z,97471.72
2023-02-13T03:35:10.964Z,97479.75
2023-02-13T03:38:03.093Z,97477.28
2023-02-13T03:41:29.919Z,97461.78
2023-02-13T03:44:17.910Z,97447.16
2023-02-13T03:47:04.547Z,97466.91
2023-02-13T03:50:06.573Z,97468.88
2023-02-13T03:52:55.726Z,97454.59
2023-02-13T03:56:01.985Z,97475.19
2023-02-13T03:59:10.614Z,97468.56
2023-02-13T04:02:14.099Z,97455.38
2023-02-13T04:05:15.234Z,97456.06
2023-02-13T04:08:01.107Z,97467.31
2023-02-13T04:11:00.157Z,97455.50
2023-02-13T04:13:51.891Z,97468.25
2023-02-13T04:16:41.587Z,97464.56
2023-02-13T04:19:27.817Z,97465.69
2023-02-13T04:22:15.145Z,97467.69
2023-02-13T04:25:01.308Z,97463.56
2023-02-13T04:27:47.096Z,97464.16
2023-02-13T04:30:33.329Z,97459.91
2023-02-13T04:33:19.352Z,97468.69
2023-02-13T04:36:05.877Z,97463.56
2023-02-13T04:38:52.152Z,97464.72
2023-02-13T04:41:38.216Z,97472.72
2023-02-13T04:44:24.310Z,97474.00
2023-02-13T04:47:10.325Z,97466.94
2023-02-13T04:49:56.167Z,97467.97
2023-02-13T04:52:42.057Z,97453.69
2023-02-13T04:55:28.522Z,97470.00
2023-02-13T04:58:14.456Z,97471.13
2023-02-13T05:01:00.589Z,97483.56
2023-02-13T05:03:46.695Z,97476.84
2023-02-13T05:06:32.543Z,97475.59
2023-02-13T05:09:18.563Z,97471.31
2023-02-13T05:12:04.444Z,97461.53
2023-02-13T05:14:50.401Z,97488.94
2023-02-13T05:17:35.980Z,97484.00
2023-02-13T05:20:21.741Z,97486.50
2023-02-13T05:23:26.325Z,97486.56
2023-02-13T05:26:12.184Z,97492.78
2023-02-13T05:29:16.473Z,97485.38
2023-02-13T05:32:02.732Z,97505.97
2023-02-13T05:34:48.954Z,97492.94
2023-02-13T05:37:34.816Z,97500.69
2023-02-13T05:40:22.263Z,97504.28
2023-02-13T05:43:09.026Z,97509.66
2023-02-13T05:46:03.145Z,97502.13
2023-02-13T05:48:48.850Z,97501.97
2023-02-13T05:51:34.646Z,97495.16
2023-02-13T05:54:20.809Z,97479.91
2023-02-13T05:57:06.713Z,97496.25
2023-02-13T05:59:52.529Z,97491.25
2023-02-13T06:02:38.540Z,97496.88
2023-02-13T06:05:24.377Z,97499.66
2023-02-13T06:08:10.022Z,97495.31
2023-02-13T06:10:55.870Z,97498.06
2023-02-13T06:13:41.707Z,97505.13
2023-02-13T06:16:27.548Z,97489.59
2023-02-13T06:19:13.150Z,97492.34
2023-02-13T06:21:59.052Z,97504.09
2023-02-13T06:24:44.621Z,97515.19
2023-02-13T06:27:31.850Z,97512.44
2023-02-13T06:30:18.793Z,97514.97
2023-02-13T06:33:05.032Z,97518.22
2023-02-13T06:35:50.915Z,97504.19
2023-02-13T06:38:36.811Z,97491.44
2023-02-13T06:41:22.599Z,97514.41
2023-02-13T06:44:08.569Z,97531.84
2023-02-13T06:46:54.492Z,97523.94
2023-02-13T06:49:40.185Z,97530.91
2023-02-13T06:52:26.031Z,97526.16
2023-02-13T06:55:11.889Z,97519.16
2023-02-13T06:57:57.791Z,97524.28
2023-02-13T07:00:43.989Z,97524.97
2023-02-13T07:03:30.018Z,97520.28
2023-02-13T07:06:20.243Z,97521.22
2023-02-13T07:09:06.261Z,97518.84
2023-02-13T07:11:52.481Z,97513.94
2023-02-13T07:14:38.669Z,97512.25
2023-02-13T07:17:24.729Z,97530.41
2023-02-13T07:20:10.982Z,97506.28
2023-02-13T07:23:01.387Z,97517.97
2023-02-13T07:25:47.130Z,97530.47
2023-02-13T07:28:33.052Z,97519.91
2023-02-13T07:31:19.266Z,97521.03
2023-02-13T07:34:05.124Z,97545.44
2023-02-13T07:36:50.866Z,97541.78
2023-02-13T07:39:38.931Z,97544.00
2023-02-13T07:42:24.811Z,97541.84
2023-02-13T07:45:12.010Z,97540.63
2023-02-13T07:47:58.473Z,97536.53
2023-02-13T07:50:44.574Z,97543.91
2023-02-13T07:53:30.196Z,97535.44
2023-02-13T07:56:16.108Z,97522.81
2023-02-13T07:59:01.914Z,97521.31
2023-02-13T08:01:47.735Z,97532.88
2023-02-13T08:04:33.581Z,97520.88
2023-02-13T08:07:19.883Z,97489.97
2023-02-13T08:10:27.025Z,97512.97
2023-02-13T08:13:14.428Z,97526.56
2023-02-13T08:16:00.650Z,97522.81
2023-02-13T08:18:46.380Z,97533.84
2023-02-13T08:21:32.319Z,97518.41
2023-02-13T08:24:18.407Z,97513.63
2023-02-13T08:27:04.458Z,97504.44
2023-02-13T08:29:54.328Z,97511.03
2023-02-13T08:32:53.388Z,97517.81
2023-02-13T08:35:40.061Z,97515.25
2023-02-13T08:38:26.389Z,97507.88
2023-02-13T08:41:12.232Z,97507.41
2023-02-13T08:43:58.051Z,97512.94
2023-02-13T08:46:43.959Z,97496.03
2023-02-13T08:49:30.654Z,97504.66
2023-02-13T08:52:16.658Z,97506.03
2023-02-13T08:55:03.682Z,97495.78
2023-02-13T08:57:49.860Z,97501.94
2023-02-13T09:00:35.658Z,97494.16
2023-02-13T09:03:21.353Z,97493.53
2023-02-13T09:06:07.314Z,97503.50
2023-02-13T09:08:53.649Z,97506.28
2023-02-13T09:11:39.424Z,97490.69
2023-02-13T09:14:25.467Z,97493.56
2023-02-13T09:17:11.608Z,97493.00
2023-02-13T09:19:57.365Z,97488.44
2023-02-13T09:22:43.225Z,97493.84
2023-02-13T09:25:28.977Z,97473.38
2023-02-13T09:28:14.890Z,97476.28
2023-02-13T09:31:05.612Z,97484.16
2023-02-13T09:33:51.737Z,97480.81
2023-02-13T09:36:37.505Z,97478.34
2023-02-13T09:39:23.320Z,97470.03
2023-02-13T09:42:19.556Z,97457.34
2023-02-13T09:45:06.996Z,97472.78
2023-02-13T09:47:52.798Z,97480.50
2023-02-13T09:50:39.781Z,97469.38
2023-02-13T09:53:28.659Z,97470.50
2023-02-13T09:56:16.845Z,97462.69
2023-02-13T09:59:21.067Z,97457.56
2023-02-13T10:02:28.286Z,97457.50
2023-02-13T10:05:29.607Z,97459.69
2023-02-13T10:08:43.832Z,97451.00
2023-02-13T10:11:35.565Z,97444.59
2023-02-13T10:14:32.918Z,97432.84
2023-02-13T10:17:28.970Z,97427.31
2023-02-13T10:20:26.153Z,97423.91
2023-02-13T10:23:15.204Z,97426.59
2023-02-13T10:26:02.979Z,97426.72
2023-02-13T10:29:27.705Z,97402.38
2023-02-13T10:32:17.155Z,97399.59
2023-02-13T10:35:04.702Z,97395.72
2023-02-13T10:37:54.664Z,97391.59
2023-02-13T10:40:48.391Z,97387.81
2023-02-13T10:43:58.691Z,97387.97
2023-02-13T10:47:09.009Z,97371.84
2023-02-13T10:50:04.365Z,97388.19
2023-02-13T10:53:15.777Z,97377.50
2023-02-13T10:56:10.676Z,97371.44
2023-02-13T10:59:32.811Z,97366.09
2023-02-13T11:02:31.848Z,97372.75
2023-02-13T11:05:36.317Z,97374.41
2023-02-13T11:08:33.691Z,97359.88
2023-02-13T11:11:30.664Z,97349.06
2023-02-13T11:14:24.601Z,97340.53
2023-02-13T11:17:17.711Z,97336.66
2023-02-13T11:20:07.549Z,97349.75
2023-02-13T11:22:54.003Z,97332.69
2023-02-13T11:25:40.038Z,97334.59
2023-02-13T11:28:31.289Z,97342.94
2023-02-13T11:31:34.827Z,97340.69
2023-02-13T11:34:26.642Z,97340.78
2023-02-13T11:37:15.423Z,97337.88
2023-02-13T11:40:30.786Z,97329.03
2023-02-13T11:43:24.349Z,97321.09
2023-02-13T11:46:17.411Z,97334.66
2023-02-13T11:49:04.569Z,97322.06
2023-02-13T11:51:53.063Z,97318.88
2023-02-13T11:54:40.940Z,97311.97
2023-02-13T11:57:32.634Z,97310.66
2023-02-13T12:00:32.411Z,97304.28
2023-02-13T12:03:21.787Z,97299.25
2023-02-13T12:06:11.056Z,97293.81
2023-02-13T12:08:57.387Z,97301.28
2023-02-13T12:11:48.679Z,97291.69
2023-02-13T12:14:40.215Z,97285.22
2023-02-13T12:17:32.533Z,97291.19
2023-02-13T12:20:18.890Z,97287.97
2023-02-13T12:23:14.037Z,97274.22
2023-02-13T12:26:03.191Z,97260.28
2023-02-13T12:29:07.380Z,97269.91
2023-02-13T12:32:38.264Z,97264.59
2023-02-13T12:35:48.489Z,97261.97
2023-02-13T12:39:12.001Z,97251.06
2023-02-13T12:42:16.920Z,97244.91
2023-02-13T12:45:27.961Z,97242.69
2023-02-13T12:48:51.176Z,97240.16
2023-02-13T12:52:23.234Z,97243.69
2023-02-13T12:55:31.814Z,97230.78
2023-02-13T12:58:20.566Z,97226.69
2023-02-13T13:01:18.850Z,97226.28
2023-02-13T13:04:04.844Z,97222.19
2023-02-13T13:07:02.738Z,97208.16
2023-02-13T13:10:04.298Z,97202.38
2023-02-13T13:12:55.848Z,97207.16
2023-02-13T13:15:59.842Z,97210.13
2023-02-13T13:19:06.935Z,97196.03
2023-02-13T13:22:06.176Z,97198.69
2023-02-13T13:25:16.854Z,97204.31
2023-02-13T13:28:07.926Z,97196.72
2023-02-13T13:30:53.870Z,97200.38
2023-02-13T13:33:42.005Z,97195.25
2023-02-13T13:36:28.041Z,97204.50
2023-02-13T13:39:30.702Z,97200.59
2023-02-13T13:42:31.198Z,97204.97
2023-02-13T13:45:52.236Z,97199.13
2023-02-13T13:48:45.954Z,97180.44
2023-02-13T13:51:32.047Z,97194.94
2023-02-13T13:54:20.257Z,97187.47
2023-02-13T13:57:06.737Z,97190.59
2023-02-13T13:59:58.115Z,97146.50
2023-02-13T14:03:14.247Z,97167.56
2023-02-13T14:06:11.713Z,97176.72
2023-02-13T14:09:04.556Z,97181.09
2023-02-13T14:11:50.684Z,97170.00
2023-02-13T14:14:36.743Z,97172.69
2023-02-13T14:17:44.513Z,97172.63
2023-02-13T14:20:50.825Z,97168.44
2023-02-13T14:23:43.001Z,97181.88
2023-02-13T14:26:32.971Z,97177.50
2023-02-13T14:29:48.339Z,97176.41
2023-02-13T14:32:37.100Z,97169.06
2023-02-13T14:35:34.387Z,97164.31
2023-02-13T14:38:24.328Z,97167.06
2023-02-13T14:41:49.442Z,97170.78
2023-02-13T14:44:38.660Z,97179.94
2023-02-13T14:47:30.990Z,97173.53
2023-02-13T14:50:24.175Z,97167.38
2023-02-13T14:53:17.878Z,97169.44
2023-02-13T14:56:11.987Z,97156.53
2023-02-13T14:59:12.957Z,97175.41
2023-02-13T15:02:22.945Z,97174.59
2023-02-13T15:05:14.785Z,97154.78
2023-02-13T15:08:08.833Z,97167.72
2023-02-13T15:10:56.354Z,97180.53
2023-02-13T15:13:42.444Z,97176.75
2023-02-13T15:16:28.157Z,97174.06
2023-02-13T15:19:19.295Z,97167.91
2023-02-13T15:22:06.044Z,97158.47
2023-02-13T15:24:52.567Z,97175.81
2023-02-13T15:27:43.573Z,97169.47
2023-02-13T15:30:32.190Z,97165.56
2023-02-13T15:33:20.931Z,97167.09
2023-02-13T15:36:07.058Z,97167.81
2023-02-13T15:39:00.420Z,97165.25
2023-02-13T15:41:52.117Z,97181.00
2023-02-13T15:44:40.306Z,97186.78
2023-02-13T15:47:32.094Z,97177.19
2023-02-13T15:50:30.406Z,97193.22
2023-02-13T15:53:18.169Z,97185.91
2023-02-13T15:56:05.526Z,97188.00
2023-02-13T15:58:52.759Z,97172.25
2023-02-13T16:01:40.726Z,97187.00
2023-02-13T16:04:28.070Z,97181.50
2023-02-13T16:07:14.626Z,97198.22
2023-02-13T16:10:28.894Z,97194.56
2023-02-13T16:13:17.208Z,97176.28
2023-02-13T16:16:09.305Z,97192.72
2023-02-13T16:18:55.048Z,97195.66
2023-02-13T16:21:41.176Z,97193.53
2023-02-13T16:24:28.028Z,97199.03
2023-02-13T16:27:15.102Z,97185.75
2023-02-13T16:30:04.120Z,97206.00
2023-02-13T16:32:50.492Z,97193.88
2023-02-13T16:35:39.446Z,97211.31
2023-02-13T16:38:43.370Z,97214.63
2023-02-13T16:41:31.156Z,97215.31
2023-02-13T16:44:25.738Z,97227.38
2023-02-13T16:47:22.348Z,97225.50
2023-02-13T16:50:15.262Z,97219.44
2023-02-13T16:53:04.743Z,97232.16
2023-02-13T16:55:58.204Z,97228.94
2023-02-13T16:58:44.080Z,97227.03
2023-02-13T17:01:30.059Z,97225.59
2023-02-13T17:04:24.626Z,97230.03
2023-02-13T17:07:22.973Z,97228.25
2023-02-13T17:10:27.498Z,97234.69
2023-02-13T17:13:17.760Z,97234.09
2023-02-13T17:16:05.566Z,97234.16
2023-02-13T17:18:51.490Z,97236.59
2023-02-13T17:21:37.600Z,97229.53
2023-02-13T17:24:23.857Z,97230.28
2023-02-13T17:27:10.836Z,97235.84
2023-02-13T17:29:57.237Z,97220.44
2023-02-13T17:32:44.885Z,97237.34
2023-02-13T17:35:31.306Z,97228.94
2023-02-13T17:38:17.567Z,97228.81
2023-02-13T17:41:03.493Z,97234.84
2023-02-13T17:43:49.304Z,97233.53
2023-02-13T17:46:35.287Z,97239.72
2023-02-13T17:49:21.128Z,97234.53
2023-02-13T17:52:07.029Z,97223.19
2023-02-13T17:54:53.053Z,97232.13
2023-02-13T17:57:38.801Z,97231.75
2023-02-13T18:00:29.177Z,97231.13
2023-02-13T18:03:15.203Z,97229.94
2023-02-13T18:06:01.194Z,97213.88
2023-02-13T18:08:47.056Z,97230.06
2023-02-13T18:11:32.952Z,97231.03
2023-02-13T18:14:18.728Z,97236.69
2023-02-13T18:17:04.565Z,97230.41
2023-02-13T18:19:50.974Z,97238.59
2023-02-13T18:22:37.000Z,97235.94
2023-02-13T18:25:23.745Z,97230.28
2023-02-13T18:28:09.690Z,97236.91
2023-02-13T18:30:55.989Z,97232.53
2023-02-13T18:33:42.311Z,97235.44
2023-02-13T18:36:28.198Z,97235.94
2023-02-13T18:39:14.601Z,97239.78
2023-02-13T18:42:00.578Z,97240.00
2023-02-13T18:44:46.435Z,97224.41
2023-02-13T18:47:33.895Z,97231.00
2023-02-13T18:50:20.161Z,97218.78
2023-02-13T18:53:06.130Z,97224.22
2023-02-13T18:56:02.851Z,97226.59
2023-02-13T18:58:50.106Z,97225.66
2023-02-13T19:01:36.718Z,97227.69
2023-02-13T19:04:22.897Z,97234.81
2023-02-13T19:07:08.906Z,97220.09
2023-02-13T19:09:54.779Z,97227.28
2023-02-13T19:12:40.518Z,97236.47
2023-02-13T19:15:26.384Z,97226.91
2023-02-13T19:18:12.579Z,97234.75
2023-02-13T19:21:00.590Z,97227.47
2023-02-13T19:23:47.127Z,97231.72
2023-02-13T19:26:33.463Z,97236.19
2023-02-13T19:29:19.432Z,97229.41
2023-02-13T19:32:05.437Z,97235.56
2023-02-13T19:34:51.351Z,97230.47
2023-02-13T19:37:43.705Z,97227.94
2023-02-13T19:40:30.059Z,97227.66
2023-02-13T19:43:15.940Z,97222.47
2023-02-13T19:46:04.899Z,97220.91
2023-02-13T19:48:50.982Z,97212.31
2023-02-13T19:51:37.031Z,97221.13
2023-02-13T19:54:22.877Z,97191.34
2023-02-13T19:57:09.103Z,97214.47
2023-02-13T19:59:55.078Z,97212.38
2023-02-13T20:02:40.985Z,97201.97
2023-02-13T20:05:26.982Z,97215.03
2023-02-13T20:08:13.159Z,97225.28
2023-02-13T20:11:00.985Z,97217.53
2023-02-13T20:13:46.970Z,97227.31
2023-02-13T20:16:35.602Z,97226.38
2023-02-13T20:19:21.823Z,97233.25
2023-02-13T20:22:07.842Z,97221.41
2023-02-13T20:24:54.032Z,97227.44
2023-02-13T20:27:42.634Z,97220.53
2023-02-13T20:30:29.439Z,97225.13
2023-02-13T20:33:15.840Z,97227.06
2023-02-13T20:36:08.759Z,97223.66
2023-02-13T20:38:57.073Z,97212.75
2023-02-13T20:41:48.516Z,97212.22
2023-02-13T20:44:34.579Z,97217.31
2023-02-13T20:47:20.625Z,97222.63
2023-02-13T20:50:07.145Z,97214.16
2023-02-13T20:52:53.085Z,97209.81
2023-02-13T20:55:39.110Z,97203.88
2023-02-13T20:58:25.054Z,97200.50
2023-02-13T21:01:15.641Z,97205.81
2023-02-13T21:04:02.083Z,97208.56
2023-02-13T21:06:48.716Z,97207.06
2023-02-13T21:09:34.799Z,97197.56
2023-02-13T21:12:21.040Z,97188.00
2023-02-13T21:15:07.083Z,97193.22
2023-02-13T21:17:53.020Z,97187.50
2023-02-13T21:20:39.071Z,97193.63
2023-02-13T21:23:24.889Z,97191.75
2023-02-13T21:26:16.396Z,97194.16
2023-02-13T21:29:02.274Z,97183.88
2023-02-13T21:31:48.561Z,97188.25
2023-02-13T21:34:34.836Z,97195.44
2023-02-13T21:37:20.873Z,97196.59
2023-02-13T21:40:13.175Z,97188.38
2023-02-13T21:42:59.643Z,97182.63
2023-02-13T21:45:45.684Z,97174.28
2023-02-13T21:48:31.792Z,97172.38
2023-02-13T21:51:20.056Z,97165.72
2023-02-13T21:54:06.074Z,97169.66
2023-02-13T21:56:52.104Z,97182.44
2023-02-13T21:59:38.014Z,97184.34
2023-02-13T22:02:24.277Z,97187.88
2023-02-13T22:05:10.406Z,97177.59
2023-02-13T22:08:11.596Z,97171.53
2023-02-13T22:10:59.507Z,97171.88
2023-02-13T22:13:45.860Z,97175.47
2023-02-13T22:16:34.033Z,97171.53
2023-02-13T22:19:21.076Z,97182.78
2023-02-13T22:22:07.187Z,97184.59
2023-02-13T22:24:52.874Z,97171.03
2023-02-13T22:27:38.776Z,97180.69
2023-02-13T22:30:24.823Z,97152.41
2023-02-13T22:33:10.544Z,97180.16
2023-02-13T22:35:56.510Z,97186.31
2023-02-13T22:38:42.415Z,97161.63
2023-02-13T22:41:28.402Z,97176.69
2023-02-13T22:44:14.238Z,97186.00
2023-02-13T22:46:59.952Z,97180.81
2023-02-13T22:49:45.792Z,97182.94
2023-02-13T22:52:31.689Z,97186.50
2023-02-13T22:55:17.589Z,97183.25
2023-02-13T22:58:03.483Z,97161.75
2023-02-13T23:00:49.388Z,97180.81
2023-02-13T23:03:35.050Z,97157.72
2023-02-13T23:06:21.978Z,97173.91
2023-02-13T23:09:08.717Z,97174.97
2023-02-13T23:12:13.315Z,97177.09
2023-02-13T23:14:59.656Z,97175.41
2023-02-13T23:18:04.336Z,97178.06
2023-02-13T23:20:50.335Z,97166.06
2023-02-13T23:23:37.081Z,97163.66
2023-02-13T23:26:23.013Z,97179.09
2023-02-13T23:29:09.138Z,97171.59
2023-02-13T23:31:55.554Z,97172.13
2023-02-13T23:34:41.593Z,97167.16
2023-02-13T23:37:27.349Z,97151.78
2023-02-13T23:40:15.124Z,97167.03
2023-02-13T23:43:01.418Z,97162.56
2023-02-13T23:45:47.271Z,97147.78
2023-02-13T23:48:34.017Z,97156.63
2023-02-13T23:51:21.350Z,97160.88
2023-02-13T23:54:07.416Z,97163.72
2023-02-13T23:56:55.065Z,97154.94
2023-02-13T23:59:41.034Z,97136.31
